Station Historical Data
 
Daily Summary for June 18, 2019 Units:  Metric    English   Both
« Previous Day
Next Day »
Daily Weekly Monthly Yearly Custom
  Current: High: Low: Average:
Temperature: 24.5 °C 25.6 °C 17.2 °C 22 °C
Dew Point: 18.2 °C 19.4 °C 10.1 °C 16 °C
Humidity: 68% 83% 46% 69%
Wind Speed: 9.7km/h 16.1km/h 0.0km/h 6.5km/h
Wind Gust: 20.9km/h 38.6km/h - -
WindSSE - - South
Pressure: 1011.3 hPa 1014.1 hPa 1011.3 hPa -
Precipitation: 0.0 mm      
Historical Graphs
 
 
Tabular Data for June 18, 2019
Time Temperature Dew Point Pressure Wind Wind Speed Wind Gust Humidity Rainfall Rate (Hourly) solar Conditions
00:00 22.1 °C 13.1 °C 1014.0 hPa SSW 8.0 km/h 22.5 km/h 57% 0.0 mm 0.00 W/m2 CLR
00:05 22.0 °C 12.8 °C 1014.1 hPa South 8.0 km/h 24.1 km/h 56% 0.0 mm 0.00 W/m2 CLR
00:10 21.9 °C 12.8 °C 1014.0 hPa South 9.7 km/h 20.9 km/h 56% 0.0 mm 0.00 W/m2 CLR
00:15 21.9 °C 13.1 °C 1014.0 hPa South 8.0 km/h 19.3 km/h 57% 0.0 mm 0.00 W/m2 CLR
00:20 21.9 °C 13.0 °C 1014.0 hPa South 8.0 km/h 19.3 km/h 57% 0.0 mm 0.00 W/m2 CLR
00:25 21.8 °C 12.9 °C 1014.1 hPa South 8.0 km/h 22.5 km/h 57% 0.0 mm 0.00 W/m2 CLR
00:30 21.8 °C 12.7 °C 1014.1 hPa SSW 8.0 km/h 19.3 km/h 56% 0.0 mm 0.00 W/m2 CLR
00:35 21.9 °C 12.4 °C 1014.1 hPa SSW 4.8 km/h 16.1 km/h 55% 0.0 mm 0.00 W/m2 CLR
00:40 21.9 °C 12.2 °C 1014.1 hPa SSW 4.8 km/h 16.1 km/h 54% 0.0 mm 0.00 W/m2 CLR
00:45 21.9 °C 11.9 °C 1014.1 hPa South 4.8 km/h 14.5 km/h 53% 0.0 mm 0.00 W/m2 CLR
00:50 21.9 °C 11.9 °C 1014.1 hPa SSW 8.0 km/h 16.1 km/h 53% 0.0 mm 0.00 W/m2 CLR
00:55 22.0 °C 11.4 °C 1014.0 hPa SSW 3.2 km/h 14.5 km/h 51% 0.0 mm 0.00 W/m2 CLR
01:00 22.1 °C 11.5 °C 1014.0 hPa SSW 3.2 km/h 11.3 km/h 51% 0.0 mm 0.00 W/m2 CLR
01:05 22.2 °C 11.2 °C 1013.9 hPa SW 3.2 km/h 9.7 km/h 50% 0.0 mm 0.00 W/m2 CLR
01:10 22.2 °C 10.7 °C 1013.9 hPa SW 3.2 km/h 14.5 km/h 48% 0.0 mm 0.00 W/m2 CLR
01:15 22.3 °C 10.7 °C 1013.8 hPa SW 1.6 km/h 8.0 km/h 48% 0.0 mm 0.00 W/m2 CLR
01:20 22.3 °C 10.7 °C 1013.7 hPa SSW 3.2 km/h 8.0 km/h 48% 0.0 mm 0.00 W/m2 CLR
01:25 22.2 °C 11.0 °C 1013.7 hPa SSW 1.6 km/h 4.8 km/h 49% 0.0 mm 0.00 W/m2 CLR
01:30 22.2 °C 10.6 °C 1013.7 hPa SW 1.6 km/h 9.7 km/h 48% 0.0 mm 0.00 W/m2 CLR
01:35 22.2 °C 10.3 °C 1013.7 hPa SSW 3.2 km/h 11.3 km/h 47% 0.0 mm 0.00 W/m2 CLR
01:40 22.3 °C 10.1 °C 1013.6 hPa South 3.2 km/h 11.3 km/h 46% 0.0 mm 0.00 W/m2 CLR
01:45 22.3 °C 10.1 °C 1013.6 hPa South 3.2 km/h 8.0 km/h 46% 0.0 mm 0.00 W/m2 CLR
01:50 22.3 °C 10.4 °C 1013.6 hPa South 8.0 km/h 11.3 km/h 47% 0.0 mm 0.00 W/m2 CLR
01:55 22.2 °C 10.4 °C 1013.5 hPa South 3.2 km/h 11.3 km/h 47% 0.0 mm 0.00 W/m2 CLR
02:00 22.1 °C 10.6 °C 1013.4 hPa South 4.8 km/h 11.3 km/h 48% 0.0 mm 0.00 W/m2 CLR
02:05 22.0 °C 11.1 °C 1013.3 hPa SSE 3.2 km/h 9.7 km/h 50% 0.0 mm 0.00 W/m2 CLR
02:10 21.9 °C 11.6 °C 1013.3 hPa ESE 3.2 km/h 6.4 km/h 52% 0.0 mm 0.00 W/m2 CLR
02:15 21.7 °C 12.3 °C 1013.3 hPa East 3.2 km/h 6.4 km/h 55% 0.0 mm 0.00 W/m2 CLR
02:20 21.4 °C 12.8 °C 1013.2 hPa East 3.2 km/h 8.0 km/h 58% 0.0 mm 0.00 W/m2 CLR
02:25 21.2 °C 12.8 °C 1013.2 hPa SE 3.2 km/h 6.4 km/h 59% 0.0 mm 0.00 W/m2 CLR
02:30 21.0 °C 12.9 °C 1013.2 hPa SE 4.8 km/h 8.0 km/h 60% 0.0 mm 0.00 W/m2 CLR
02:35 20.8 °C 13.1 °C 1013.2 hPa SE 3.2 km/h 9.7 km/h 61% 0.0 mm 0.00 W/m2 CLR
02:40 20.7 °C 13.1 °C 1013.2 hPa SE 3.2 km/h 6.4 km/h 62% 0.0 mm 0.00 W/m2 CLR
02:45 20.5 °C 13.2 °C 1013.2 hPa SE 3.2 km/h 6.4 km/h 63% 0.0 mm 0.00 W/m2 CLR
02:50 20.3 °C 13.3 °C 1013.2 hPa ESE 1.6 km/h 6.4 km/h 64% 0.0 mm 0.00 W/m2 CLR
02:55 20.2 °C 13.2 °C 1013.1 hPa ESE 1.6 km/h 4.8 km/h 64% 0.0 mm 0.00 W/m2 CLR
03:00 20.1 °C 13.3 °C 1013.1 hPa ESE 1.6 km/h 3.2 km/h 65% 0.0 mm 0.00 W/m2 CLR
03:05 20.1 °C 13.3 °C 1013.1 hPa Calm   3.2 km/h 65% 0.0 mm 0.00 W/m2 CLR
03:10 20.0 °C 13.2 °C 1013.1 hPa ESE 1.6 km/h 3.2 km/h 65% 0.0 mm 0.00 W/m2 CLR
03:15 19.9 °C 13.4 °C 1013.1 hPa ESE 1.6 km/h 3.2 km/h 66% 0.0 mm 0.00 W/m2 CLR
03:20 19.8 °C 13.3 °C 1013.1 hPa ESE 1.6 km/h 3.2 km/h 66% 0.0 mm 0.00 W/m2 CLR
03:25 19.7 °C 13.2 °C 1013.1 hPa ESE 1.6 km/h 3.2 km/h 66% 0.0 mm 0.00 W/m2 CLR
03:30 19.6 °C 13.1 °C 1013.1 hPa ESE 1.6 km/h 3.2 km/h 66% 0.0 mm 0.00 W/m2 CLR
03:35 19.5 °C 13.0 °C 1013.1 hPa Calm   3.2 km/h 66% 0.0 mm 0.00 W/m2 CLR
03:40 19.4 °C 12.8 °C 1013.1 hPa Calm     66% 0.0 mm 0.00 W/m2 CLR
03:45 19.2 °C 12.9 °C 1013.1 hPa Calm   3.2 km/h 67% 0.0 mm 0.00 W/m2 CLR
03:50 19.1 °C 13.1 °C 1013.1 hPa ESE 3.2 km/h 4.8 km/h 68% 0.0 mm 0.00 W/m2 CLR
03:55 19.1 °C 13.2 °C 1013.1 hPa ESE 1.6 km/h 4.8 km/h 69% 0.0 mm 0.00 W/m2 CLR
04:00 18.9 °C 13.1 °C 1013.1 hPa ESE 1.6 km/h 3.2 km/h 69% 0.0 mm 0.00 W/m2 CLR
04:05 18.9 °C 13.3 °C 1013.1 hPa ESE 1.6 km/h 4.8 km/h 70% 0.0 mm 0.00 W/m2 CLR
04:10 18.8 °C 13.2 °C 1013.1 hPa ESE 1.6 km/h 3.2 km/h 70% 0.0 mm 0.00 W/m2 CLR
04:15 18.8 °C 13.2 °C 1013.1 hPa Calm   3.2 km/h 70% 0.0 mm 0.00 W/m2 CLR
04:20 18.7 °C 13.1 °C 1013.1 hPa Calm   1.6 km/h 70% 0.0 mm 0.00 W/m2 CLR
04:25 18.6 °C 13.2 °C 1013.0 hPa Calm   1.6 km/h 71% 0.0 mm 0.00 W/m2 CLR
04:30 18.6 °C 13.2 °C 1013.0 hPa Calm   3.2 km/h 71% 0.0 mm 0.00 W/m2 CLR
04:35 18.4 °C 13.1 °C 1012.9 hPa East 1.6 km/h 4.8 km/h 71% 0.0 mm 0.00 W/m2 CLR
04:40 18.3 °C 13.0 °C 1013.0 hPa NW 1.6 km/h 3.2 km/h 71% 0.0 mm 0.00 W/m2 CLR
04:45 18.3 °C 12.9 °C 1013.0 hPa NW 1.6 km/h 3.2 km/h 71% 0.0 mm 0.00 W/m2 CLR
04:50 18.2 °C 12.6 °C 1013.0 hPa Calm   3.2 km/h 70% 0.0 mm 0.00 W/m2 CLR
04:55 18.1 °C 12.5 °C 1012.9 hPa NW 1.6 km/h 3.2 km/h 70% 0.0 mm 0.00 W/m2 CLR
05:00 18.0 °C 12.4 °C 1012.9 hPa NW 1.6 km/h 3.2 km/h 70% 0.0 mm 0.00 W/m2 CLR
05:05 18.0 °C 12.4 °C 1013.0 hPa Calm   3.2 km/h 70% 0.0 mm 0.00 W/m2 CLR
05:10 17.9 °C 12.6 °C 1013.0 hPa NW 1.6 km/h 4.8 km/h 71% 0.0 mm 0.00 W/m2 CLR
05:15 18.0 °C 12.9 °C 1012.9 hPa NW 3.2 km/h 4.8 km/h 72% 0.0 mm 0.00 W/m2 CLR
05:20 18.0 °C 12.9 °C 1012.9 hPa NNW 3.2 km/h 4.8 km/h 72% 0.0 mm 0.00 W/m2 CLR
05:25 18.0 °C 12.9 °C 1012.8 hPa NNW 3.2 km/h 6.4 km/h 72% 0.0 mm 0.00 W/m2 CLR
05:30 18.2 °C 13.7 °C 1012.8 hPa NNW 1.6 km/h 6.4 km/h 75% 0.0 mm 0.00 W/m2 CLR
05:35 18.3 °C 14.0 °C 1012.8 hPa NNW 1.6 km/h 4.8 km/h 76% 0.0 mm 0.00 W/m2 CLR
05:40 18.3 °C 14.2 °C 1012.9 hPa NNW 4.8 km/h 9.7 km/h 77% 0.0 mm 0.00 W/m2 CLR
05:45 18.3 °C 14.4 °C 1012.8 hPa NNW 1.6 km/h 12.9 km/h 78% 0.0 mm 0.00 W/m2 CLR
05:50 18.3 °C 14.6 °C 1012.9 hPa NNW 4.8 km/h 9.7 km/h 79% 0.0 mm 0.00 W/m2 CLR
05:55 18.4 °C 14.9 °C 1012.8 hPa Calm   8.0 km/h 80% 0.0 mm 0.00 W/m2 CLR
06:00 18.4 °C 15.1 °C 1012.9 hPa NNW 3.2 km/h 8.0 km/h 81% 0.0 mm 0.00 W/m2 CLR
06:05 18.3 °C 15.0 °C 1012.9 hPa North 3.2 km/h 11.3 km/h 81% 0.0 mm 0.00 W/m2 OVC
06:10 18.3 °C 15.2 °C 1012.9 hPa North 3.2 km/h 6.4 km/h 82% 0.0 mm 0.00 W/m2 OVC
06:15 18.2 °C 15.1 °C 1012.9 hPa North 3.2 km/h 8.0 km/h 82% 0.0 mm 0.00 W/m2 OVC
06:20 17.8 °C 14.3 °C 1012.9 hPa NNW 3.2 km/h 8.0 km/h 80% 0.0 mm 0.00 W/m2 OVC
06:25 17.3 °C 13.1 °C 1012.9 hPa NNW 3.2 km/h 6.4 km/h 76% 0.0 mm 0.00 W/m2 OVC
06:30 17.2 °C 12.3 °C 1013.0 hPa NNW 3.2 km/h 8.0 km/h 73% 0.0 mm 0.00 W/m2 OVC
06:35 17.2 °C 12.1 °C 1013.0 hPa NNW 1.6 km/h 8.0 km/h 72% 0.0 mm 6.00 W/m2 OVC
06:40 17.3 °C 12.0 °C 1013.0 hPa NNW 3.2 km/h 6.4 km/h 71% 0.0 mm 8.40 W/m2 CLR
06:45 17.4 °C 12.3 °C 1013.0 hPa NNW 3.2 km/h 6.4 km/h 72% 0.0 mm 10.80 W/m2 FEW
06:50 17.5 °C 12.4 °C 1013.1 hPa Calm   4.8 km/h 72% 0.0 mm 14.40 W/m2 SCT
06:55 17.5 °C 12.4 °C 1013.1 hPa Calm   1.6 km/h 72% 0.0 mm 16.80 W/m2 SCT
07:00 17.5 °C 12.4 °C 1013.1 hPa Calm   3.2 km/h 72% 0.0 mm 21.60 W/m2 SCT
07:05 17.6 °C 12.4 °C 1013.1 hPa Calm   1.6 km/h 72% 0.0 mm 25.20 W/m2 BKN
07:10 17.6 °C 12.5 °C 1013.1 hPa Calm   3.2 km/h 72% 0.0 mm 33.60 W/m2 SCT
07:15 17.7 °C 12.6 °C 1013.1 hPa Calm   1.6 km/h 72% 0.0 mm 46.80 W/m2 SCT
07:20 17.7 °C 12.6 °C 1013.1 hPa NW 1.6 km/h 3.2 km/h 72% 0.0 mm 63.60 W/m2 FEW
07:25 17.8 °C 12.4 °C 1013.2 hPa North 3.2 km/h 4.8 km/h 71% 0.0 mm 78.00 W/m2 FEW
07:30 17.8 °C 12.5 °C 1013.3 hPa NE 1.6 km/h 6.4 km/h 71% 0.0 mm 92.40 W/m2 FEW
07:35 17.9 °C 12.6 °C 1013.3 hPa Calm   4.8 km/h 71% 0.0 mm 111.60 W/m2 CLR
07:40 18.1 °C 12.9 °C 1013.4 hPa Calm   3.2 km/h 72% 0.0 mm 128.40 W/m2 CLR
07:45 18.6 °C 14.4 °C 1013.4 hPa ENE 3.2 km/h 4.8 km/h 77% 0.0 mm 147.60 W/m2 CLR
07:50 18.9 °C 15.4 °C 1013.5 hPa East 1.6 km/h 6.4 km/h 80% 0.0 mm 170.40 W/m2 CLR
07:55 19.2 °C 16.0 °C 1013.6 hPa East 1.6 km/h 4.8 km/h 82% 0.0 mm 111.60 W/m2 SCT
08:00 19.3 °C 16.1 °C 1013.6 hPa ESE 3.2 km/h 4.8 km/h 82% 0.0 mm 116.40 W/m2 SCT
08:05 19.3 °C 16.4 °C 1013.7 hPa SE 1.6 km/h 4.8 km/h 83% 0.0 mm 122.40 W/m2 SCT
08:10 19.3 °C 16.3 °C 1013.7 hPa SE 1.6 km/h 3.2 km/h 83% 0.0 mm 141.60 W/m2 SCT
08:15 19.3 °C 16.3 °C 1013.7 hPa Calm   4.8 km/h 83% 0.0 mm 135.60 W/m2 SCT
08:20 19.3 °C 16.3 °C 1013.8 hPa SE 3.2 km/h 6.4 km/h 83% 0.0 mm 202.80 W/m2 FEW
08:25 19.3 °C 16.4 °C 1013.8 hPa Calm   6.4 km/h 83% 0.0 mm 198.00 W/m2 FEW
08:30 19.3 °C 16.1 °C 1013.9 hPa South 3.2 km/h 6.4 km/h 82% 0.0 mm 316.80 W/m2 CLR
08:35 19.3 °C 15.9 °C 1013.9 hPa South 4.8 km/h 8.0 km/h 81% 0.0 mm 206.40 W/m2 SCT
08:40 19.4 °C 16.1 °C 1013.9 hPa South 1.6 km/h 6.4 km/h 81% 0.0 mm 295.20 W/m2 CLR
08:45 19.7 °C 16.3 °C 1013.9 hPa South 1.6 km/h 4.8 km/h 81% 0.0 mm 364.80 W/m2 CLR
08:50 20.0 °C 16.8 °C 1014.0 hPa South 8.0 km/h 11.3 km/h 82% 0.0 mm 447.60 W/m2 CLR
08:55 20.3 °C 17.1 °C 1014.0 hPa South 4.8 km/h 9.7 km/h 82% 0.0 mm 432.00 W/m2 CLR
09:00 20.4 °C 17.3 °C 1013.9 hPa South 3.2 km/h 11.3 km/h 82% 0.0 mm 459.60 W/m2 CLR
09:05 20.7 °C 17.5 °C 1013.9 hPa South 4.8 km/h 8.0 km/h 82% 0.0 mm 472.80 W/m2 CLR
09:10 20.8 °C 17.7 °C 1013.9 hPa South 8.0 km/h 16.1 km/h 82% 0.0 mm 373.20 W/m2 CLR
09:15 21.0 °C 17.8 °C 1013.9 hPa South 9.7 km/h 14.5 km/h 82% 0.0 mm 517.20 W/m2 CLR
09:20 21.0 °C 17.6 °C 1013.9 hPa South 8.0 km/h 14.5 km/h 81% 0.0 mm 535.20 W/m2 CLR
09:25 21.1 °C 17.7 °C 1013.9 hPa South 8.0 km/h 19.3 km/h 81% 0.0 mm 554.40 W/m2 CLR
09:30 21.2 °C 17.7 °C 1013.8 hPa South 8.0 km/h 20.9 km/h 80% 0.0 mm 576.00 W/m2 CLR
09:35 21.3 °C 17.7 °C 1013.9 hPa South 8.0 km/h 19.3 km/h 80% 0.0 mm 596.40 W/m2 CLR
09:40 21.4 °C 17.8 °C 1013.8 hPa South 11.3 km/h 22.5 km/h 80% 0.0 mm 615.60 W/m2 CLR
09:45 21.6 °C 17.9 °C 1013.9 hPa South 3.2 km/h 14.5 km/h 80% 0.0 mm 637.20 W/m2 CLR
09:50 21.6 °C 18.1 °C 1013.8 hPa SSW 4.8 km/h 22.5 km/h 80% 0.0 mm 660.00 W/m2 CLR
09:55 21.7 °C 17.9 °C 1013.8 hPa South 4.8 km/h 16.1 km/h 79% 0.0 mm 679.20 W/m2 CLR
10:00 21.8 °C 18.0 °C 1013.8 hPa South 11.3 km/h 24.1 km/h 79% 0.0 mm 696.00 W/m2 CLR
10:05 21.9 °C 17.9 °C 1013.8 hPa South 12.9 km/h 20.9 km/h 78% 0.0 mm 715.20 W/m2 CLR
10:10 21.8 °C 17.8 °C 1013.8 hPa South 4.8 km/h 22.5 km/h 78% 0.0 mm 732.00 W/m2 CLR
10:15 21.9 °C 17.7 °C 1013.8 hPa SSW 4.8 km/h 19.3 km/h 77% 0.0 mm 753.60 W/m2 CLR
10:20 22.1 °C 17.8 °C 1013.7 hPa SSW 9.7 km/h 19.3 km/h 77% 0.0 mm 774.00 W/m2 CLR
10:25 22.2 °C 18.0 °C 1013.7 hPa South 8.0 km/h 16.1 km/h 77% 0.0 mm 793.20 W/m2 CLR
10:30 22.4 °C 18.2 °C 1013.7 hPa South 4.8 km/h 19.3 km/h 77% 0.0 mm 810.00 W/m2 CLR
10:35 22.6 °C 18.2 °C 1013.7 hPa South 12.9 km/h 22.5 km/h 76% 0.0 mm 823.20 W/m2 CLR
10:40 22.7 °C 18.2 °C 1013.7 hPa South 11.3 km/h 19.3 km/h 76% 0.0 mm 841.20 W/m2 CLR
10:45 22.7 °C 18.3 °C 1013.7 hPa SSE 8.0 km/h 19.3 km/h 76% 0.0 mm 862.80 W/m2 CLR
10:50 22.7 °C 18.4 °C 1013.6 hPa South 9.7 km/h 20.9 km/h 77% 0.0 mm 874.80 W/m2 CLR
10:55 22.8 °C 18.6 °C 1013.6 hPa South 8.0 km/h 19.3 km/h 77% 0.0 mm 898.80 W/m2 CLR
11:00 22.9 °C 18.7 °C 1013.6 hPa South 12.9 km/h 27.4 km/h 77% 0.0 mm 915.60 W/m2 CLR
11:05 22.8 °C 18.6 °C 1013.7 hPa South 12.9 km/h 25.7 km/h 77% 0.0 mm 927.60 W/m2 CLR
11:10 23.0 °C 18.7 °C 1013.7 hPa South 8.0 km/h 19.3 km/h 77% 0.0 mm 962.40 W/m2 CLR
11:15 23.2 °C 18.9 °C 1013.8 hPa South 8.0 km/h 19.3 km/h 77% 0.0 mm 1040.40 W/m2 CLR
11:20 23.4 °C 18.9 °C 1013.7 hPa South 12.9 km/h 22.5 km/h 76% 0.0 mm 987.60 W/m2 CLR
11:25 23.4 °C 18.9 °C 1013.8 hPa SSE 8.0 km/h 19.3 km/h 76% 0.0 mm 1012.80 W/m2 CLR
11:30 23.6 °C 19.1 °C 1013.7 hPa SSE 8.0 km/h 19.3 km/h 76% 0.0 mm 1057.20 W/m2 CLR
11:35 23.6 °C 19.1 °C 1013.7 hPa South 9.7 km/h 19.3 km/h 76% 0.0 mm 1027.20 W/m2 CLR
11:40 23.6 °C 19.1 °C 1013.7 hPa SSE 8.0 km/h 20.9 km/h 76% 0.0 mm 1004.40 W/m2 CLR
11:45 23.5 °C 19.1 °C 1013.7 hPa SSE 3.2 km/h 19.3 km/h 76% 0.0 mm 1041.60 W/m2 CLR
11:50 23.7 °C 19.2 °C 1013.7 hPa SSE 11.3 km/h 19.3 km/h 76% 0.0 mm 1046.40 W/m2 CLR
11:55 23.9 °C 19.3 °C 1013.6 hPa SSE 8.0 km/h 16.1 km/h 75% 0.0 mm 1063.20 W/m2 CLR
12:00 24.2 °C 19.2 °C 1013.7 hPa SSE 11.3 km/h 24.1 km/h 74% 0.0 mm 1082.40 W/m2 CLR
12:05 24.3 °C 19.4 °C 1013.7 hPa South 8.0 km/h 19.3 km/h 74% 0.0 mm 1094.40 W/m2 CLR
12:10 24.4 °C 19.3 °C 1013.7 hPa South 11.3 km/h 20.9 km/h 73% 0.0 mm 1107.60 W/m2 CLR
12:15 24.3 °C 18.8 °C 1013.6 hPa South 8.0 km/h 19.3 km/h 71% 0.0 mm 1116.00 W/m2 CLR
12:20 24.5 °C 19.1 °C 1013.6 hPa South 8.0 km/h 19.3 km/h 72% 0.0 mm 1124.40 W/m2 CLR
12:25 24.7 °C 19.1 °C 1013.6 hPa South 4.8 km/h 19.3 km/h 71% 0.0 mm 1130.40 W/m2 CLR
12:30 24.9 °C 19.1 °C 1013.6 hPa SSE 8.0 km/h 19.3 km/h 70% 0.0 mm 1141.20 W/m2 CLR
12:35 24.9 °C 19.1 °C 1013.6 hPa SSE 11.3 km/h 19.3 km/h 70% 0.0 mm 1154.40 W/m2 CLR
12:40 24.7 °C 18.6 °C 1013.6 hPa South 11.3 km/h 19.3 km/h 69% 0.0 mm 1158.00 W/m2 CLR
12:45 24.6 °C 19.0 °C 1013.6 hPa South 11.3 km/h 22.5 km/h 71% 0.0 mm 1168.80 W/m2 CLR
12:50 24.7 °C 19.1 °C 1013.5 hPa SSE 9.7 km/h 20.9 km/h 71% 0.0 mm 1177.20 W/m2 CLR
12:55 24.7 °C 19.1 °C 1013.6 hPa South 9.7 km/h 19.3 km/h 71% 0.0 mm 1180.80 W/m2 CLR
13:00 24.7 °C 19.3 °C 1013.5 hPa SSW 9.7 km/h 25.7 km/h 72% 0.0 mm 1194.00 W/m2 CLR
13:05 24.8 °C 18.9 °C 1013.5 hPa SSE 8.0 km/h 20.9 km/h 70% 0.0 mm 1200.00 W/m2 CLR
13:10 24.9 °C 18.6 °C 1013.6 hPa South 4.8 km/h 22.5 km/h 68% 0.0 mm 1206.00 W/m2 CLR
13:15 25.2 °C 18.9 °C 1013.5 hPa South 8.0 km/h 22.5 km/h 68% 0.0 mm 1219.20 W/m2 CLR
13:20 25.3 °C 18.4 °C 1013.5 hPa South 11.3 km/h 24.1 km/h 66% 0.0 mm 1221.60 W/m2 CLR
13:25 25.3 °C 18.7 °C 1013.5 hPa South 9.7 km/h 24.1 km/h 67% 0.0 mm 1221.60 W/m2 CLR
13:30 25.3 °C 18.4 °C 1013.6 hPa SSW 8.0 km/h 25.7 km/h 66% 0.0 mm 1227.60 W/m2 CLR
13:35 25.1 °C 18.7 °C 1013.6 hPa SSW 12.9 km/h 27.4 km/h 68% 0.0 mm 1232.40 W/m2 CLR
13:40 25.0 °C 18.9 °C 1013.6 hPa SSW 8.0 km/h 29.0 km/h 69% 0.0 mm 1225.20 W/m2 CLR
13:45 24.8 °C 19.0 °C 1013.7 hPa SSW 9.7 km/h 19.3 km/h 70% 0.0 mm 1227.60 W/m2 CLR
13:50 24.8 °C 19.0 °C 1013.6 hPa South 12.9 km/h 24.1 km/h 70% 0.0 mm 1236.00 W/m2 CLR
13:55 24.8 °C 19.2 °C 1013.5 hPa South 9.7 km/h 20.9 km/h 71% 0.0 mm 1233.60 W/m2 CLR
14:00 24.7 °C 18.9 °C 1013.6 hPa South 11.3 km/h 33.8 km/h 70% 0.0 mm 1236.00 W/m2 CLR
14:05 24.8 °C 18.7 °C 1013.5 hPa South 12.9 km/h 22.5 km/h 69% 0.0 mm 1224.00 W/m2 CLR
14:10 25.0 °C 19.2 °C 1013.5 hPa South 8.0 km/h 32.2 km/h 70% 0.0 mm 1225.20 W/m2 CLR
14:15 25.2 °C 19.1 °C 1013.5 hPa South 11.3 km/h 24.1 km/h 69% 0.0 mm 1227.60 W/m2 CLR
14:20 25.3 °C 19.2 °C 1013.5 hPa South 12.9 km/h 32.2 km/h 69% 0.0 mm 1230.00 W/m2 CLR
14:25 25.2 °C 18.9 °C 1013.4 hPa South 8.0 km/h 22.5 km/h 68% 0.0 mm 1232.40 W/m2 CLR
14:30 25.3 °C 19.2 °C 1013.3 hPa South 9.7 km/h 22.5 km/h 69% 0.0 mm 1224.00 W/m2 CLR
14:35 25.5 °C 19.2 °C 1013.2 hPa SSE 9.7 km/h 27.4 km/h 68% 0.0 mm 1227.60 W/m2 CLR
14:40 25.3 °C 18.7 °C 1013.2 hPa South 9.7 km/h 20.9 km/h 67% 0.0 mm 1219.20 W/m2 CLR
14:45 25.1 °C 19.2 °C 1013.1 hPa South 11.3 km/h 22.5 km/h 70% 0.0 mm 1221.60 W/m2 CLR
14:50 25.1 °C 19.2 °C 1013.1 hPa South 12.9 km/h 38.6 km/h 70% 0.0 mm 1213.20 W/m2 CLR
14:55 24.9 °C 19.1 °C 1013.0 hPa South 16.1 km/h 32.2 km/h 70% 0.0 mm 1206.00 W/m2 CLR
15:00 24.9 °C 18.9 °C 1013.0 hPa South 8.0 km/h 29.0 km/h 69% 0.0 mm 1208.40 W/m2 CLR
15:05 24.9 °C 18.8 °C 1012.9 hPa South 14.5 km/h 32.2 km/h 69% 0.0 mm 1202.40 W/m2 CLR
15:10 24.8 °C 18.7 °C 1012.8 hPa SSW 12.9 km/h 25.7 km/h 69% 0.0 mm 1196.40 W/m2 CLR
15:15 24.8 °C 18.8 °C 1012.8 hPa SSE 12.9 km/h 25.7 km/h 69% 0.0 mm 1191.60 W/m2 CLR
15:20 24.9 °C 18.7 °C 1012.8 hPa South 16.1 km/h 37.0 km/h 68% 0.0 mm 1180.80 W/m2 CLR
15:25 24.5 °C 18.9 °C 1012.8 hPa South 14.5 km/h 32.2 km/h 71% 0.0 mm 1171.20 W/m2 CLR
15:30 24.3 °C 18.9 °C 1012.7 hPa South 12.9 km/h 35.4 km/h 72% 0.0 mm 1166.40 W/m2 CLR
15:35 24.1 °C 18.8 °C 1012.7 hPa South 14.5 km/h 29.0 km/h 72% 0.0 mm 1158.00 W/m2 CLR
15:40 24.3 °C 18.9 °C 1012.7 hPa South 11.3 km/h 29.0 km/h 72% 0.0 mm 1135.20 W/m2 CLR
15:45 24.4 °C 18.8 °C 1012.6 hPa South 11.3 km/h 27.4 km/h 71% 0.0 mm 1132.80 W/m2 CLR
15:50 24.7 °C 18.8 °C 1012.5 hPa South 12.9 km/h 24.1 km/h 70% 0.0 mm 1119.60 W/m2 CLR
15:55 24.8 °C 18.8 °C 1012.5 hPa South 12.9 km/h 27.4 km/h 69% 0.0 mm 1116.00 W/m2 CLR
16:00 25.2 °C 18.8 °C 1012.4 hPa South 4.8 km/h 19.3 km/h 68% 0.0 mm 1105.20 W/m2 CLR
16:05 25.6 °C 19.0 °C 1012.3 hPa SSW 12.9 km/h 29.0 km/h 67% 0.0 mm 1096.80 W/m2 CLR
16:10 25.4 °C 18.6 °C 1012.2 hPa South 11.3 km/h 29.0 km/h 66% 0.0 mm 1082.40 W/m2 CLR
16:15 25.6 °C 18.9 °C 1012.1 hPa South 11.3 km/h 27.4 km/h 67% 0.0 mm 1077.60 W/m2 CLR
16:20 25.4 °C 17.9 °C 1012.0 hPa South 8.0 km/h 32.2 km/h 63% 0.0 mm 1071.60 W/m2 CLR
16:25 25.3 °C 17.5 °C 1011.9 hPa South 8.0 km/h 20.9 km/h 62% 0.0 mm 1057.20 W/m2 CLR
16:30 25.3 °C 17.3 °C 1011.9 hPa SSW 9.7 km/h 19.3 km/h 61% 0.0 mm 1044.00 W/m2 CLR
16:35 25.2 °C 17.1 °C 1011.8 hPa SSW 9.7 km/h 20.9 km/h 61% 0.0 mm 1032.00 W/m2 CLR
16:40 25.1 °C 17.3 °C 1011.8 hPa SSW 9.7 km/h 19.3 km/h 62% 0.0 mm 1018.80 W/m2 CLR
16:45 25.1 °C 16.2 °C 1011.7 hPa SSW 9.7 km/h 20.9 km/h 58% 0.0 mm 1002.00 W/m2 CLR
16:50 25.3 °C 18.3 °C 1011.8 hPa SSW 9.7 km/h 24.1 km/h 65% 0.0 mm 991.20 W/m2 CLR
16:55 25.3 °C 18.5 °C 1011.8 hPa SSW 9.7 km/h 16.1 km/h 66% 0.0 mm 974.40 W/m2 CLR
17:00 25.3 °C 18.8 °C 1011.9 hPa SSW 12.9 km/h 25.7 km/h 67% 0.0 mm 957.60 W/m2 CLR
17:05 25.4 °C 18.8 °C 1011.8 hPa South 9.7 km/h 24.1 km/h 67% 0.0 mm 943.20 W/m2 CLR
17:10 25.2 °C 18.7 °C 1011.9 hPa SSW 12.9 km/h 25.7 km/h 67% 0.0 mm 926.40 W/m2 CLR
17:15 25.1 °C 18.5 °C 1012.0 hPa South 14.5 km/h 29.0 km/h 67% 0.0 mm 904.80 W/m2 CLR
17:20 25.0 °C 18.9 °C 1012.0 hPa South 11.3 km/h 22.5 km/h 69% 0.0 mm 892.80 W/m2 CLR
17:25 25.2 °C 18.8 °C 1011.9 hPa South 11.3 km/h 29.0 km/h 68% 0.0 mm 871.20 W/m2 CLR
17:30 25.2 °C 18.9 °C 1011.9 hPa South 11.3 km/h 27.4 km/h 68% 0.0 mm 858.00 W/m2 CLR
17:35 25.0 °C 18.7 °C 1011.9 hPa South 8.0 km/h 22.5 km/h 68% 0.0 mm 835.20 W/m2 CLR
17:40 24.9 °C 18.6 °C 1011.9 hPa SSW 12.9 km/h 25.7 km/h 68% 0.0 mm 823.20 W/m2 CLR
17:45 24.8 °C 18.3 °C 1011.8 hPa South 11.3 km/h 25.7 km/h 67% 0.0 mm 804.00 W/m2 CLR
17:50 24.9 °C 18.6 °C 1011.9 hPa South 11.3 km/h 22.5 km/h 68% 0.0 mm 784.80 W/m2 CLR
17:55 25.0 °C 18.7 °C 1011.9 hPa South 11.3 km/h 20.9 km/h 68% 0.0 mm 768.00 W/m2 CLR
18:00 25.0 °C 18.7 °C 1011.8 hPa South 12.9 km/h 22.5 km/h 68% 0.0 mm 748.80 W/m2 CLR
18:05 24.8 °C 18.4 °C 1011.8 hPa South 9.7 km/h 20.9 km/h 68% 0.0 mm 729.60 W/m2 CLR
18:10 24.8 °C 18.7 °C 1011.7 hPa South 11.3 km/h 24.1 km/h 69% 0.0 mm 710.40 W/m2 CLR
18:15 24.7 °C 18.7 °C 1011.6 hPa South 11.3 km/h 24.1 km/h 69% 0.0 mm 696.00 W/m2 CLR
18:20 24.7 °C 18.8 °C 1011.4 hPa South 8.0 km/h 19.3 km/h 70% 0.0 mm 670.80 W/m2 CLR
18:25 24.8 °C 18.8 °C 1011.4 hPa South 9.7 km/h 22.5 km/h 69% 0.0 mm 649.20 W/m2 CLR
18:30 24.7 °C 18.7 °C 1011.3 hPa SSE 8.0 km/h 19.3 km/h 69% 0.0 mm 637.20 W/m2 CLR
18:35 24.7 °C 18.7 °C 1011.3 hPa SSE 8.0 km/h 19.3 km/h 69% 0.0 mm 612.00 W/m2 CLR
18:40 24.8 °C 18.6 °C 1011.3 hPa SSE 11.3 km/h 16.1 km/h 68% 0.0 mm 592.80 W/m2 CLR
18:45 24.7 °C 18.4 °C 1011.3 hPa SSE 8.0 km/h 19.3 km/h 68% 0.0 mm 571.20 W/m2 CLR
18:50 24.7 °C 18.4 °C 1011.3 hPa SSE 9.7 km/h 22.5 km/h 68% 0.0 mm 554.40 W/m2 CLR
18:55 24.5 °C 18.2 °C 1011.3 hPa SSE 9.7 km/h 20.9 km/h 68% 0.0 mm 531.60 W/m2 CLR
Juneau County Weather
Compliments of Weather Underground - 13.25 mb

past weather